Time;durP1;ratioP1;P1;durP2;ratioP2;P2;SDS_P1;SDS_P2;PMS_P1;PMS_P2;Temp;Humidity;BMP_temperature;BMP_pressure;BME280_temperature;BME280_humidity;BME280_pressure;Samples;Min_cycle;Max_cycle;Signal;HPM_P1;HPM_P2
2021/12/21 00:00:23;;;;;;;7.80;4.57;;;-2.10;99.90;;;;;;5029421;28;20127;-69
2021/12/21 00:02:53;;;;;;;9.93;4.17;;;-2.10;99.90;;;;;;5027331;28;20507;-69
2021/12/21 00:05:21;;;;;;;10.47;4.70;;;-2.10;99.90;;;;;;5046613;28;20156;-73
2021/12/21 00:07:55;;;;;;;10.27;4.33;;;-2.20;99.90;;;;;;5045668;28;20370;-73
2021/12/21 00:10:24;;;;;;;11.27;4.13;;;-2.20;99.90;;;;;;5044022;28;20037;-72
2021/12/21 00:15:51;;;;;;;9.97;3.67;;;-2.20;99.90;;;;;;5045887;28;20056;-72
2021/12/21 00:21:05;;;;;;;7.27;2.90;;;-2.20;99.90;;;;;;5044386;28;20379;-72
2021/12/21 00:26:01;;;;;;;5.50;3.10;;;-2.20;99.90;;;;;;5044334;28;20064;-72
2021/12/21 00:28:31;;;;;;;5.97;2.63;;;-2.20;99.90;;;;;;5044929;28;20491;-72
2021/12/21 00:30:57;;;;;;;7.07;2.65;;;-2.20;99.90;;;;;;5026412;28;20056;-72
2021/12/21 00:33:23;;;;;;;8.10;2.57;;;-2.10;99.90;;;;;;5060884;28;20102;-72
2021/12/21 00:35:49;;;;;;;7.73;2.67;;;-2.10;99.90;;;;;;5043945;28;20276;-72
2021/12/21 00:38:14;;;;;;;9.03;3.10;;;-2.10;99.90;;;;;;5027789;28;20480;-72
2021/12/21 00:40:40;;;;;;;7.93;2.30;;;-2.20;99.90;;;;;;5028084;28;20037;-73
2021/12/21 00:43:06;;;;;;;6.00;2.20;;;-2.20;99.90;;;;;;5043961;28;20044;-72
2021/12/21 00:45:32;;;;;;;7.47;2.37;;;-2.20;99.90;;;;;;5011924;28;20554;-72
2021/12/21 00:47:58;;;;;;;7.73;2.50;;;-2.30;99.90;;;;;;5011272;28;20057;-70
2021/12/21 00:50:24;;;;;;;6.30;2.50;;;-2.30;99.90;;;;;;5044651;28;20076;-70
2021/12/21 00:52:52;;;;;;;6.83;2.50;;;-2.30;99.90;;;;;;5026198;28;20048;-70
2021/12/21 00:55:20;;;;;;;7.53;1.77;;;-2.30;99.90;;;;;;5026965;28;20055;-70
2021/12/21 00:57:46;;;;;;;6.13;1.70;;;-2.40;99.90;;;;;;5044569;28;20052;-69
2021/12/21 01:00:15;;;;;;;7.17;2.30;;;-2.50;99.90;;;;;;5024435;28;20411;-69
2021/12/21 01:02:42;;;;;;;8.57;2.47;;;-2.50;99.90;;;;;;5037508;28;20492;-69
2021/12/21 01:05:18;;;;;;;13.07;2.80;;;-2.60;99.90;;;;;;5025878;28;20571;-70
2021/12/21 01:07:47;;;;;;;10.87;3.07;;;-2.50;99.90;;;;;;5041936;28;20056;-69
2021/12/21 01:18:15;;;;;;;7.47;2.43;;;-2.60;99.90;;;;;;5043153;28;20076;-70
2021/12/21 01:20:48;;;;;;;7.93;2.20;;;-2.60;99.90;;;;;;5027344;28;20045;-69
2021/12/21 01:31:28;;;;;;;7.23;2.97;;;-2.50;99.90;;;;;;5043119;28;20052;-69
2021/12/21 01:36:52;;;;;;;8.13;3.20;;;-2.60;99.90;;;;;;5044713;28;20041;-70
2021/12/21 01:44:34;;;;;;;8.37;3.03;;;-2.60;99.90;;;;;;5028580;28;20163;-70
2021/12/21 01:49:49;;;;;;;8.07;3.57;;;-2.70;99.90;;;;;;5043748;28;20439;-69
2021/12/21 01:52:24;;;;;;;7.10;3.03;;;-2.60;99.90;;;;;;5043413;28;20055;-69
2021/12/21 01:54:51;;;;;;;5.87;2.90;;;-2.60;99.90;;;;;;5040828;28;20041;-70
2021/12/21 01:57:17;;;;;;;7.80;2.97;;;-2.70;99.90;;;;;;5043044;28;20037;-69
2021/12/21 01:59:44;;;;;;;7.23;3.03;;;-2.70;99.90;;;;;;5027654;28;20037;-69
2021/12/21 02:02:13;;;;;;;6.43;2.80;;;-2.70;99.90;;;;;;5041642;28;20521;-69
2021/12/21 02:04:40;;;;;;;10.23;3.70;;;-2.60;99.90;;;;;;5043991;28;20055;-69
2021/12/21 02:07:08;;;;;;;7.40;3.33;;;-2.60;99.90;;;;;;5042929;28;20037;-69
2021/12/21 02:09:40;;;;;;;8.13;3.43;;;-2.60;99.90;;;;;;5008731;28;20037;-69
2021/12/21 02:12:09;;;;;;;8.30;3.90;;;-2.60;99.90;;;;;;5037188;28;20417;-69
2021/12/21 02:14:36;;;;;;;8.87;3.57;;;-2.60;99.90;;;;;;5043079;28;20136;-70
2021/12/21 02:19:54;;;;;;;9.40;4.97;;;-2.60;99.90;;;;;;5042850;28;20053;-70
2021/12/21 02:22:23;;;;;;;10.97;5.00;;;-2.50;99.90;;;;;;5044614;28;20048;-69
2021/12/21 02:25:38;;;;;;;10.07;5.57;;;-2.60;99.90;;;;;;5013757;28;20143;-69
2021/12/21 02:27:55;;;;;;;9.27;5.70;;;-2.60;99.90;;;;;;5041629;28;20044;-70
2021/12/21 02:30:21;;;;;;;11.73;5.63;;;-2.60;99.90;;;;;;5019589;28;20047;-70
2021/12/21 02:32:48;;;;;;;8.47;4.40;;;-2.50;99.90;;;;;;5030104;28;20056;-69
2021/12/21 02:35:14;;;;;;;7.57;3.23;;;-2.60;99.90;;;;;;5046947;28;20052;-69
2021/12/21 02:37:40;;;;;;;7.60;3.17;;;-2.60;99.90;;;;;;5030607;28;20045;-70
2021/12/21 02:40:07;;;;;;;9.83;3.57;;;-2.60;99.90;;;;;;5030307;28;20499;-69
2021/12/21 02:42:32;;;;;;;8.67;3.83;;;-2.60;99.90;;;;;;5047043;28;20048;-69
2021/12/21 02:44:59;;;;;;;9.83;4.27;;;-2.60;99.90;;;;;;5030454;28;20045;-69
2021/12/21 02:47:24;;;;;;;12.80;6.73;;;-2.60;99.90;;;;;;5046892;28;20036;-69
2021/12/21 02:49:53;;;;;;;14.20;7.23;;;-2.70;99.90;;;;;;5013818;28;20665;-70
2021/12/21 02:52:19;;;;;;;9.30;6.53;;;-2.70;99.90;;;;;;5047158;28;20057;-69
2021/12/21 02:54:44;;;;;;;10.37;5.97;;;-2.80;99.90;;;;;;5046090;28;20067;-69
2021/12/21 02:57:10;;;;;;;14.17;8.23;;;-2.70;99.90;;;;;;5046658;28;20102;-70
2021/12/21 02:59:36;;;;;;;16.80;9.07;;;-2.90;99.90;;;;;;5046744;28;20044;-69
2021/12/21 03:02:02;;;;;;;8.50;6.07;;;-2.80;99.90;;;;;;5034773;28;20037;-70
2021/12/21 03:04:31;;;;;;;11.17;5.33;;;-2.90;99.90;;;;;;4995245;28;20546;-69
2021/12/21 03:14:44;;;;;;;9.57;5.33;;;-2.90;99.90;;;;;;5021316;28;20049;-70
2021/12/21 03:17:10;;;;;;;9.40;5.40;;;-3.00;99.90;;;;;;5015542;28;20061;-70
2021/12/21 03:19:36;;;;;;;9.37;5.90;;;-3.00;99.90;;;;;;5031979;28;20124;-69
2021/12/21 03:22:03;;;;;;;8.13;5.43;;;-3.00;99.90;;;;;;5048059;28;20415;-70
2021/12/21 03:24:29;;;;;;;10.10;5.67;;;-3.00;99.90;;;;;;5029766;28;20535;-70
2021/12/21 03:26:55;;;;;;;12.70;6.40;;;-2.90;99.90;;;;;;5031080;28;20079;-70
2021/12/21 03:29:22;;;;;;;10.97;7.43;;;-3.00;99.90;;;;;;5031483;28;20110;-70
2021/12/21 03:31:48;;;;;;;11.33;7.37;;;-2.90;99.90;;;;;;5024620;28;20041;-69
2021/12/21 03:34:14;;;;;;;13.77;7.77;;;-2.90;99.90;;;;;;5032062;28;20065;-70
2021/12/21 03:36:41;;;;;;;11.67;6.50;;;-2.90;99.90;;;;;;5030726;28;20098;-69
2021/12/21 03:39:10;;;;;;;12.33;6.43;;;-3.00;99.90;;;;;;5045503;28;20131;-70
2021/12/21 03:41:44;;;;;;;13.30;6.60;;;-3.10;99.90;;;;;;5027570;28;20048;-69
2021/12/21 03:44:10;;;;;;;8.67;5.30;;;-3.10;99.90;;;;;;5047091;28;20052;-69
2021/12/21 03:46:44;;;;;;;9.63;5.53;;;-3.20;99.90;;;;;;5031025;28;20076;-69
2021/12/21 03:49:50;;;;;;;14.23;8.73;;;-3.20;99.90;;;;;;5012320;28;20625;-69
2021/12/21 03:51:57;;;;;;;15.23;11.33;;;-3.20;99.90;;;;;;5030652;28;20091;-70
2021/12/21 03:54:23;;;;;;;12.73;7.67;;;-3.10;99.90;;;;;;5042504;28;20072;-69
2021/12/21 03:56:50;;;;;;;10.07;7.30;;;-3.20;99.90;;;;;;5012496;28;20681;-70
2021/12/21 03:59:17;;;;;;;12.13;6.93;;;-3.20;99.90;;;;;;5047079;28;20509;-69
2021/12/21 04:01:43;;;;;;;11.23;7.87;;;-3.10;99.90;;;;;;5044949;28;20115;-70
2021/12/21 04:04:09;;;;;;;11.93;9.63;;;-3.10;99.90;;;;;;5030400;28;20053;-70
2021/12/21 04:06:36;;;;;;;13.97;9.13;;;-3.10;99.90;;;;;;5046957;28;20521;-69
2021/12/21 04:09:05;;;;;;;13.37;9.07;;;-3.10;99.90;;;;;;5020502;28;20037;-69
2021/12/21 04:11:31;;;;;;;12.07;8.70;;;-3.10;99.90;;;;;;5043838;28;20178;-70
2021/12/21 04:13:57;;;;;;;13.23;9.27;;;-3.10;99.90;;;;;;5035946;28;20535;-70
2021/12/21 04:16:23;;;;;;;12.03;9.33;;;-3.10;99.90;;;;;;5014230;28;20048;-70
2021/12/21 04:18:49;;;;;;;15.97;9.73;;;-3.10;99.90;;;;;;5044921;28;20507;-70
2021/12/21 04:21:15;;;;;;;17.60;12.47;;;-3.10;99.90;;;;;;5029603;28;20041;-70
2021/12/21 04:23:42;;;;;;;15.20;12.03;;;-3.10;99.90;;;;;;5046627;28;20475;-70
2021/12/21 04:26:10;;;;;;;13.87;11.03;;;-3.20;99.90;;;;;;5042941;28;20530;-69
2021/12/21 04:28:35;;;;;;;15.27;10.97;;;-3.20;99.90;;;;;;5021646;28;20049;-70
2021/12/21 04:31:03;;;;;;;14.60;11.43;;;-3.20;99.90;;;;;;5045015;28;20557;-70
2021/12/21 04:33:29;;;;;;;13.40;9.87;;;-3.20;99.90;;;;;;5010560;28;20052;-70
2021/12/21 04:35:55;;;;;;;13.67;10.20;;;-3.20;99.90;;;;;;5028093;28;20129;-70
2021/12/21 04:38:24;;;;;;;13.33;10.40;;;-3.20;99.90;;;;;;5047042;28;20049;-70
2021/12/21 04:41:00;;;;;;;14.17;9.20;;;-3.20;99.90;;;;;;5044737;28;20045;-70
2021/12/21 04:43:26;;;;;;;13.90;10.33;;;-3.20;99.90;;;;;;5063298;28;20586;-70
2021/12/21 04:45:52;;;;;;;14.60;10.67;;;-3.20;99.90;;;;;;5029930;28;20891;-70
2021/12/21 04:48:18;;;;;;;17.97;12.20;;;-3.20;99.90;;;;;;5029683;28;20051;-70
2021/12/21 04:50:44;;;;;;;14.63;11.53;;;-3.20;99.90;;;;;;5029620;28;20135;-70
2021/12/21 04:53:10;;;;;;;13.83;10.80;;;-3.20;99.90;;;;;;5009317;28;20052;-69
2021/12/21 04:55:36;;;;;;;16.00;11.33;;;-3.20;99.90;;;;;;5009950;28;20052;-70
2021/12/21 04:58:05;;;;;;;17.47;10.60;;;-3.20;99.90;;;;;;5026120;28;20128;-70
2021/12/21 05:00:31;;;;;;;13.50;10.60;;;-3.20;99.90;;;;;;5026436;28;20769;-70
2021/12/21 05:02:57;;;;;;;14.50;11.50;;;-3.20;99.90;;;;;;5044155;28;20128;-70
2021/12/21 05:05:23;;;;;;;18.13;14.63;;;-3.20;99.90;;;;;;5047190;28;20049;-69
2021/12/21 05:08:05;;;;;;;16.90;12.40;;;-3.30;99.90;;;;;;5046506;28;20057;-70
2021/12/21 05:10:33;;;;;;;21.00;14.60;;;-3.30;99.90;;;;;;5046718;28;20456;-70
2021/12/21 05:12:59;;;;;;;17.80;14.93;;;-3.30;99.90;;;;;;5029603;28;20048;-70
2021/12/21 05:15:25;;;;;;;18.23;14.90;;;-3.40;99.90;;;;;;5030543;28;20052;-69
2021/12/21 05:17:51;;;;;;;17.60;12.17;;;-3.40;99.90;;;;;;5046112;28;20041;-69
2021/12/21 05:20:17;;;;;;;20.43;16.27;;;-3.50;99.90;;;;;;5045912;28;20446;-69
2021/12/21 05:22:42;;;;;;;18.53;12.67;;;-3.40;99.90;;;;;;5012512;28;20063;-69
2021/12/21 05:25:08;;;;;;;14.00;12.03;;;-3.50;99.90;;;;;;5028846;28;20108;-70
2021/12/21 05:27:34;;;;;;;18.93;14.93;;;-3.50;99.90;;;;;;5045999;28;20102;-70
2021/12/21 05:30:00;;;;;;;16.57;11.63;;;-3.50;99.90;;;;;;5012653;28;20048;-69
2021/12/21 05:32:26;;;;;;;15.80;11.10;;;-3.50;99.90;;;;;;5033603;28;20526;-68
2021/12/21 05:34:52;;;;;;;15.13;11.83;;;-3.50;99.90;;;;;;5042528;28;20049;-68
2021/12/21 05:37:20;;;;;;;16.50;11.73;;;-3.50;99.90;;;;;;5040632;28;20080;-68
2021/12/21 05:40:01;;;;;;;16.70;13.10;;;-3.50;99.90;;;;;;5041044;28;20042;-68
2021/12/21 05:42:26;;;;;;;14.45;11.85;;;-3.40;99.90;;;;;;5026125;28;20489;-69
2021/12/21 05:44:52;;;;;;;17.53;12.33;;;-3.50;99.90;;;;;;5025433;28;20096;-68
2021/12/21 05:47:19;;;;;;;14.97;11.70;;;-3.40;99.90;;;;;;5025155;28;20459;-68
2021/12/21 05:49:45;;;;;;;17.17;13.90;;;-3.40;99.90;;;;;;5038923;28;20172;-68
2021/12/21 05:52:11;;;;;;;17.17;14.93;;;-3.40;99.90;;;;;;5028172;28;20045;-68
2021/12/21 05:54:37;;;;;;;16.93;15.20;;;-3.40;99.90;;;;;;5029978;28;20102;-69
2021/12/21 05:57:04;;;;;;;19.13;13.27;;;-3.30;99.90;;;;;;5008848;28;20137;-69
2021/12/21 05:59:29;;;;;;;17.53;14.77;;;-3.30;99.90;;;;;;5029829;28;20056;-69
2021/12/21 06:01:55;;;;;;;15.87;13.40;;;-3.40;99.90;;;;;;5029289;28;20141;-68
2021/12/21 06:04:23;;;;;;;17.40;15.60;;;-3.50;99.90;;;;;;5028759;28;20077;-69
2021/12/21 06:06:49;;;;;;;19.97;17.67;;;-3.50;99.90;;;;;;5029281;28;20050;-69
2021/12/21 06:09:15;;;;;;;25.57;22.83;;;-3.50;99.90;;;;;;5028578;28;20053;-68
2021/12/21 06:11:52;;;;;;;21.30;17.97;;;-3.40;99.90;;;;;;5012317;28;20045;-68
2021/12/21 06:14:36;;;;;;;26.23;21.20;;;-3.40;99.90;;;;;;5048861;28;20072;-68
2021/12/21 06:27:50;;;;;;;31.47;27.97;;;-3.30;99.90;;;;;;5054645;28;20056;-68
2021/12/21 06:30:15;;;;;;;26.37;23.77;;;-3.30;99.90;;;;;;5048805;28;20056;-69
2021/12/21 06:32:42;;;;;;;37.53;31.43;;;-3.30;99.90;;;;;;5047876;28;20041;-68
2021/12/21 06:35:09;;;;;;;26.50;23.70;;;-3.30;99.90;;;;;;5031079;28;20402;-68
2021/12/21 06:37:35;;;;;;;30.50;26.90;;;-3.40;99.90;;;;;;5030350;28;20498;-68
2021/12/21 06:40:01;;;;;;;28.00;24.80;;;-3.40;99.90;;;;;;5029516;28;20098;-69
2021/12/21 06:42:28;;;;;;;38.13;31.97;;;-3.50;99.90;;;;;;5047405;28;20049;-68
2021/12/21 06:44:58;;;;;;;29.70;26.33;;;-3.60;99.90;;;;;;5047031;28;20466;-68
2021/12/21 06:52:56;;;;;;;27.87;23.80;;;-3.60;99.90;;;;;;5043344;28;20041;-68
2021/12/21 06:55:22;;;;;;;25.60;21.70;;;-3.60;99.90;;;;;;5022050;28;20037;-68
2021/12/21 06:57:48;;;;;;;24.90;22.17;;;-3.70;99.90;;;;;;5026212;28;20090;-68
2021/12/21 07:00:16;;;;;;;32.07;27.20;;;-3.70;99.90;;;;;;5043422;28;20074;-69
2021/12/21 07:02:43;;;;;;;28.07;25.03;;;-3.70;99.90;;;;;;5027090;28;20033;-70
2021/12/21 07:05:09;;;;;;;26.97;23.77;;;-3.70;99.90;;;;;;5042159;28;20049;-69
2021/12/21 07:07:36;;;;;;;26.03;23.33;;;-3.70;99.90;;;;;;5061279;28;20044;-68
2021/12/21 07:10:07;;;;;;;25.83;22.87;;;-3.70;99.90;;;;;;5045140;28;20036;-69
2021/12/21 07:18:10;;;;;;;27.53;24.63;;;-3.60;99.90;;;;;;5047481;28;20053;-69
2021/12/21 07:20:37;;;;;;;25.50;22.30;;;-3.60;99.90;;;;;;5040155;28;20492;-68
2021/12/21 07:23:03;;;;;;;27.90;24.97;;;-3.70;99.90;;;;;;5022612;28;20036;-68
2021/12/21 07:25:30;;;;;;;29.47;23.23;;;-3.60;99.90;;;;;;5023341;28;20058;-68
2021/12/21 07:27:56;;;;;;;28.57;25.37;;;-3.60;99.90;;;;;;5025355;28;20657;-68
2021/12/21 07:30:22;;;;;;;31.27;27.87;;;-3.60;99.90;;;;;;5032955;28;20048;-69
2021/12/21 07:32:48;;;;;;;29.67;26.53;;;-3.60;99.90;;;;;;5033028;28;20052;-69
2021/12/21 07:35:14;;;;;;;29.93;26.67;;;-3.70;99.90;;;;;;5013508;28;20040;-69
2021/12/21 07:37:40;;;;;;;33.57;30.17;;;-3.70;99.90;;;;;;5035082;28;20057;-69
2021/12/21 07:40:07;;;;;;;32.97;29.50;;;-3.60;99.90;;;;;;5039644;28;20135;-69
2021/12/21 07:42:33;;;;;;;35.83;32.17;;;-3.60;99.90;;;;;;5021793;28;20512;-68
2021/12/21 07:44:59;;;;;;;36.20;32.40;;;-3.70;99.90;;;;;;5028908;28;20045;-73
2021/12/21 07:47:25;;;;;;;36.03;32.27;;;-3.70;99.90;;;;;;5029463;28;20068;-70
2021/12/21 07:49:51;;;;;;;38.30;34.20;;;-3.70;99.90;;;;;;5044374;28;20131;-71
2021/12/21 07:52:18;;;;;;;36.80;32.63;;;-3.60;99.90;;;;;;5045308;28;20048;-70
2021/12/21 07:54:45;;;;;;;36.50;32.67;;;-3.60;99.90;;;;;;5040735;28;20041;-71
2021/12/21 07:57:11;;;;;;;36.60;32.70;;;-3.70;99.90;;;;;;5026253;28;20045;-71
2021/12/21 07:59:39;;;;;;;38.23;33.03;;;-3.70;99.90;;;;;;5039457;28;20052;-71
2021/12/21 08:02:05;;;;;;;35.20;31.70;;;-3.70;99.90;;;;;;5028653;28;20073;-71
2021/12/21 08:04:33;;;;;;;35.40;31.60;;;-3.70;99.90;;;;;;5012303;28;20464;-71
2021/12/21 08:07:06;;;;;;;36.53;32.67;;;-3.60;99.90;;;;;;5029134;28;20040;-70
2021/12/21 08:09:38;;;;;;;37.20;33.47;;;-3.60;99.90;;;;;;5044095;28;20152;-71
2021/12/21 08:14:37;;;;;;;48.30;43.17;;;-3.70;99.90;;;;;;5045908;28;20106;-70
2021/12/21 08:17:03;;;;;;;37.90;33.83;;;-3.70;99.90;;;;;;5035199;28;20053;-71
2021/12/21 08:19:29;;;;;;;55.00;48.40;;;-3.70;99.90;;;;;;5035917;28;20069;-70
2021/12/21 08:21:55;;;;;;;61.13;50.43;;;-3.70;99.90;;;;;;5035413;28;21981;-70
2021/12/21 08:24:21;;;;;;;55.30;47.27;;;-3.70;99.90;;;;;;5031189;28;20336;-71
2021/12/21 08:26:47;;;;;;;52.80;46.83;;;-3.70;99.90;;;;;;5026815;28;20037;-71
2021/12/21 08:29:13;;;;;;;48.87;43.90;;;-3.70;99.90;;;;;;5023489;28;20296;-71
2021/12/21 08:31:39;;;;;;;48.60;43.53;;;-3.60;99.90;;;;;;5031359;28;20127;-70
2021/12/21 08:34:10;;;;;;;56.20;50.37;;;-3.60;99.90;;;;;;5033108;28;20140;-71
2021/12/21 08:36:36;;;;;;;43.43;38.83;;;-3.60;99.90;;;;;;5038670;28;20048;-71
2021/12/21 08:39:04;;;;;;;43.17;38.50;;;-3.60;99.90;;;;;;5016587;28;20041;-71
2021/12/21 08:41:30;;;;;;;51.90;46.47;;;-3.60;99.90;;;;;;5054644;28;20219;-71
2021/12/21 08:43:57;;;;;;;45.50;40.83;;;-3.60;99.90;;;;;;5020545;28;20053;-71
2021/12/21 08:46:23;;;;;;;39.03;35.13;;;-3.60;99.90;;;;;;5042576;28;20080;-71
2021/12/21 08:48:48;;;;;;;37.80;33.80;;;-3.50;99.90;;;;;;5017938;28;20084;-71
2021/12/21 08:51:14;;;;;;;46.60;41.73;;;-3.50;99.90;;;;;;5038345;28;20132;-71
2021/12/21 08:53:42;;;;;;;43.47;38.53;;;-3.40;99.90;;;;;;5034804;28;20045;-71
2021/12/21 08:56:11;;;;;;;43.17;38.73;;;-3.40;99.90;;;;;;5032754;28;20496;-71
2021/12/21 08:58:37;;;;;;;42.97;38.37;;;-3.40;99.90;;;;;;5004951;28;20053;-71
2021/12/21 09:01:03;;;;;;;39.40;35.30;;;-3.30;99.90;;;;;;5028441;28;20045;-71
2021/12/21 09:03:33;;;;;;;40.17;36.07;;;-3.30;99.90;;;;;;5027147;28;20720;-71
2021/12/21 09:06:02;;;;;;;43.60;38.50;;;-3.20;99.90;;;;;;5009128;28;20053;-71
2021/12/21 09:08:27;;;;;;;44.20;39.50;;;-3.20;99.90;;;;;;5033660;28;20052;-71
2021/12/21 09:10:54;;;;;;;50.53;45.23;;;-3.10;99.90;;;;;;5010920;28;20459;-71
2021/12/21 09:13:19;;;;;;;40.23;36.03;;;-3.10;99.90;;;;;;5037862;28;20555;-71
2021/12/21 09:15:45;;;;;;;45.53;40.63;;;-3.00;99.90;;;;;;5029774;28;20124;-71
2021/12/21 09:18:11;;;;;;;42.40;37.93;;;-3.00;99.90;;;;;;5026289;28;20064;-71
2021/12/21 09:20:37;;;;;;;47.57;42.27;;;-3.00;99.90;;;;;;5055836;28;20488;-71
2021/12/21 09:23:03;;;;;;;41.23;36.77;;;-2.80;99.90;;;;;;5010841;28;20496;-71
2021/12/21 09:25:30;;;;;;;40.10;35.83;;;-2.80;99.90;;;;;;5032507;28;20076;-71
2021/12/21 09:27:57;;;;;;;50.83;44.40;;;-2.70;99.90;;;;;;5025843;28;20513;-71
2021/12/21 09:30:25;;;;;;;47.47;41.20;;;-2.70;99.90;;;;;;5016722;28;20053;-69
2021/12/21 09:32:51;;;;;;;46.83;41.73;;;-2.70;99.90;;;;;;5023504;28;20503;-68
2021/12/21 09:35:18;;;;;;;47.50;42.50;;;-2.70;99.90;;;;;;5010687;28;20033;-68
2021/12/21 09:37:45;;;;;;;44.30;39.50;;;-2.60;99.90;;;;;;5024973;28;20044;-68
2021/12/21 09:40:16;;;;;;;40.57;36.63;;;-2.60;99.90;;;;;;5033793;28;20048;-68
2021/12/21 09:42:42;;;;;;;;;;;-2.50;99.90;;;;;;5024042;28;20049;-68
2021/12/21 09:45:08;;;;;;;39.73;35.60;;;-2.40;99.90;;;;;;5031472;28;19921;-68
2021/12/21 09:47:34;;;;;;;40.53;36.30;;;-2.40;99.90;;;;;;5027991;28;20045;-68
2021/12/21 09:50:00;;;;;;;46.50;40.57;;;-2.30;99.90;;;;;;5018999;28;20049;-69
2021/12/21 09:52:36;;;;;;;51.43;46.07;;;-2.20;99.90;;;;;;5002804;28;20038;-69
2021/12/21 09:55:12;;;;;;;42.37;37.93;;;-2.10;99.90;;;;;;5028436;28;20044;-69
2021/12/21 09:57:38;;;;;;;42.73;38.00;;;-2.00;99.90;;;;;;5020605;28;20041;-69
2021/12/21 10:00:08;;;;;;;43.57;38.90;;;-2.00;99.90;;;;;;5026831;28;20045;-70
2021/12/21 10:02:35;;;;;;;45.30;40.00;;;-1.90;99.90;;;;;;5022899;28;20133;-69
2021/12/21 10:05:06;;;;;;;41.67;37.27;;;-1.80;99.90;;;;;;5008790;28;20487;-69
2021/12/21 10:07:33;;;;;;;44.17;39.63;;;-1.70;99.90;;;;;;5012128;28;20057;-69
2021/12/21 10:10:14;;;;;;;43.70;38.97;;;-1.60;99.90;;;;;;5023550;28;20052;-69
2021/12/21 10:12:41;;;;;;;;;;;-1.60;99.90;;;;;;5040166;28;20045;-69
2021/12/21 10:15:21;;;;;;;44.90;38.17;;;-1.50;99.90;;;;;;5035991;28;20324;-69
2021/12/21 10:17:59;;;;;;;41.50;36.50;;;-1.50;99.90;;;;;;5027812;28;20068;-69
2021/12/21 10:20:38;;;;;;;47.13;42.00;;;-1.50;99.90;;;;;;5024355;28;20050;-69
2021/12/21 10:23:17;;;;;;;48.80;43.63;;;-1.40;99.90;;;;;;5045054;28;20057;-69
2021/12/21 10:26:01;;;;;;;48.53;43.37;;;-1.30;99.90;;;;;;5038076;28;20056;-69
2021/12/21 10:28:34;;;;;;;46.23;41.30;;;-1.20;99.90;;;;;;5025750;28;20045;-69
2021/12/21 10:31:08;;;;;;;46.93;41.87;;;-1.10;99.90;;;;;;5023705;28;20045;-69
2021/12/21 10:33:35;;;;;;;46.80;41.70;;;-1.00;99.90;;;;;;5024486;28;20501;-69
2021/12/21 10:36:07;;;;;;;49.60;43.23;;;-0.90;99.90;;;;;;5024461;28;20132;-69
2021/12/21 10:38:35;;;;;;;48.47;43.27;;;-0.80;99.90;;;;;;5005749;28;20841;-69
2021/12/21 10:41:16;;;;;;;46.53;41.53;;;-0.70;99.90;;;;;;5042073;28;20071;-69
2021/12/21 10:43:43;;;;;;;40.73;36.53;;;-0.60;99.90;;;;;;5048010;28;20079;-70
2021/12/21 10:46:10;;;;;;;39.73;35.63;;;-0.50;99.90;;;;;;5048460;28;20115;-70
2021/12/21 10:48:42;;;;;;;39.73;35.20;;;-0.40;99.90;;;;;;5031916;28;20041;-70
2021/12/21 10:51:14;;;;;;;41.90;37.47;;;-0.30;99.90;;;;;;5031682;28;20048;-70
2021/12/21 10:53:46;;;;;;;38.47;34.20;;;-0.20;99.90;;;;;;5031234;28;20049;-70
2021/12/21 10:56:17;;;;;;;38.87;34.77;;;-0.10;99.90;;;;;;5032171;28;20045;-70
2021/12/21 10:58:46;;;;;;;;;;;-0.10;99.90;;;;;;5047592;28;20053;-70
2021/12/21 11:01:19;;;;;;;32.83;28.67;;;0.00;99.90;;;;;;5030923;28;19924;-70
2021/12/21 11:03:55;;;;;;;38.67;34.17;;;0.10;99.90;;;;;;5028795;28;20077;-70
2021/12/21 11:06:28;;;;;;;34.63;31.10;;;0.10;99.90;;;;;;5026816;28;20520;-70
2021/12/21 11:08:57;;;;;;;35.23;30.07;;;0.20;99.90;;;;;;5012087;28;20049;-70
2021/12/21 11:11:42;;;;;;;35.27;31.07;;;0.20;99.90;;;;;;5037249;28;20056;-70
2021/12/21 11:14:09;;;;;;;34.47;30.77;;;0.30;99.90;;;;;;5038961;28;20385;-70
2021/12/21 11:16:38;;;;;;;33.50;28.83;;;0.30;99.90;;;;;;5037676;28;20634;-70
2021/12/21 11:19:04;;;;;;;30.53;26.93;;;0.40;99.90;;;;;;5015198;28;20080;-70
2021/12/21 11:21:31;;;;;;;30.73;27.53;;;0.50;99.90;;;;;;5013856;28;20053;-70
2021/12/21 11:24:01;;;;;;;31.13;26.57;;;0.60;99.90;;;;;;5028569;28;20124;-70
2021/12/21 11:26:27;;;;;;;34.10;29.57;;;0.60;99.90;;;;;;5015514;28;20049;-70
2021/12/21 11:28:55;;;;;;;29.97;24.07;;;0.70;99.90;;;;;;5034346;28;20048;-70
2021/12/21 11:31:23;;;;;;;27.93;24.97;;;0.80;99.90;;;;;;5011701;28;20080;-70
2021/12/21 11:33:56;;;;;;;29.97;25.70;;;0.80;99.90;;;;;;5028406;28;20052;-70
2021/12/21 11:39:07;;;;;;;26.90;23.73;;;0.90;99.90;;;;;;5035563;28;20384;-70
2021/12/21 11:41:34;;;;;;;29.73;24.10;;;1.00;99.90;;;;;;5004076;28;20050;-73
2021/12/21 11:44:21;;;;;;;28.33;23.60;;;1.00;99.90;;;;;;5036410;28;20088;-70
2021/12/21 11:46:55;;;;;;;28.67;25.57;;;1.10;99.90;;;;;;5028434;28;20079;-70
2021/12/21 11:49:31;;;;;;;28.27;24.93;;;1.10;99.90;;;;;;5039211;28;20404;-70
2021/12/21 11:52:09;;;;;;;25.70;23.07;;;1.10;99.90;;;;;;5033147;28;20539;-70
2021/12/21 11:54:56;;;;;;;31.10;25.73;;;1.20;99.90;;;;;;5045034;28;20052;-70
2021/12/21 11:57:45;;;;;;;29.80;23.93;;;1.20;99.90;;;;;;5027581;28;20045;-70
2021/12/21 12:00:19;;;;;;;29.80;23.20;;;1.30;99.90;;;;;;5032004;28;20144;-70
2021/12/21 12:02:46;;;;;;;28.13;21.83;;;1.30;99.90;;;;;;5036976;28;20046;-70
2021/12/21 12:05:31;;;;;;;25.10;21.30;;;1.40;99.90;;;;;;5039666;28;20116;-70
2021/12/21 12:08:09;;;;;;;22.83;19.70;;;1.40;99.90;;;;;;5027787;28;20052;-70
2021/12/21 12:10:57;;;;;;;26.13;19.10;;;1.40;99.90;;;;;;5026919;28;20106;-70
2021/12/21 12:13:40;;;;;;;21.07;17.80;;;1.50;99.90;;;;;;5030914;28;20498;-70
2021/12/21 12:16:15;;;;;;;25.10;19.47;;;1.50;99.90;;;;;;5026775;28;20033;-70
2021/12/21 12:18:45;;;;;;;27.83;20.77;;;1.50;99.90;;;;;;5027096;28;20507;-70
2021/12/21 12:21:30;;;;;;;23.55;20.00;;;1.50;99.90;;;;;;5044551;28;20069;-70
2021/12/21 12:24:02;;;;;;;23.50;19.10;;;1.60;99.90;;;;;;5043005;28;20458;-70
2021/12/21 12:26:36;;;;;;;22.80;18.40;;;1.70;99.90;;;;;;5027733;28;20103;-70
2021/12/21 12:29:14;;;;;;;20.97;14.73;;;1.70;99.90;;;;;;5035733;28;20400;-70
2021/12/21 12:31:42;;;;;;;19.33;15.93;;;1.70;99.90;;;;;;5025317;28;20036;-70
2021/12/21 12:34:08;;;;;;;25.13;15.80;;;1.80;99.90;;;;;;5041066;28;20142;-72
2021/12/21 12:36:49;;;;;;;20.77;16.03;;;1.90;99.90;;;;;;5045498;28;20075;-72
2021/12/21 12:39:40;;;;;;;16.90;13.53;;;1.90;99.90;;;;;;5042551;28;20791;-72
2021/12/21 12:42:07;;;;;;;;;;;1.90;99.90;;;;;;5006282;28;20087;-72
2021/12/21 12:44:34;;;;;;;21.10;15.40;;;2.00;99.90;;;;;;5043350;28;19928;-71
2021/12/21 12:47:04;;;;;;;19.53;14.47;;;2.00;99.90;;;;;;5042379;28;20045;-72
2021/12/21 12:49:33;;;;;;;19.63;13.55;;;2.00;99.90;;;;;;5033627;28;20045;-71
2021/12/21 12:52:15;;;;;;;16.13;13.10;;;2.10;99.90;;;;;;5056873;28;20063;-72
2021/12/21 12:54:52;;;;;;;16.20;13.47;;;2.10;99.90;;;;;;5009217;28;20667;-72
2021/12/21 12:57:54;;;;;;;17.10;14.00;;;2.20;99.90;;;;;;5010785;28;20037;-72
2021/12/21 13:00:22;;;;;;;21.13;14.77;;;2.20;99.90;;;;;;5031831;28;20065;-72
2021/12/21 13:02:59;;;;;;;16.63;12.90;;;2.20;99.90;;;;;;5039484;28;20033;-72
2021/12/21 13:05:31;;;;;;;17.73;13.57;;;2.20;99.90;;;;;;5023061;28;20076;-69
2021/12/21 13:08:16;;;;;;;18.57;13.43;;;2.30;99.90;;;;;;5038007;28;20041;-69
2021/12/21 13:10:45;;;;;;;19.27;13.40;;;2.30;99.90;;;;;;5036992;28;20088;-69
2021/12/21 13:13:11;;;;;;;19.03;13.70;;;2.30;99.90;;;;;;5052238;28;20060;-68
2021/12/21 13:15:47;;;;;;;18.63;12.70;;;2.30;99.90;;;;;;5032168;28;20059;-68
2021/12/21 13:18:19;;;;;;;17.90;14.07;;;2.40;99.90;;;;;;5037084;28;20053;-69
2021/12/21 13:20:52;;;;;;;18.70;13.67;;;2.40;99.90;;;;;;5038367;28;20053;-69
2021/12/21 13:23:29;;;;;;;18.23;13.07;;;2.40;99.90;;;;;;5036984;28;20068;-69
2021/12/21 13:26:07;;;;;;;17.10;12.20;;;2.40;99.90;;;;;;5033571;28;20033;-70
2021/12/21 13:28:59;;;;;;;17.97;12.73;;;2.40;99.90;;;;;;5025875;28;20048;-70
2021/12/21 13:31:25;;;;;;;18.70;13.97;;;2.40;99.90;;;;;;5033954;28;20047;-71
2021/12/21 13:33:54;;;;;;;16.37;13.10;;;2.40;99.90;;;;;;5042240;28;20377;-70
2021/12/21 13:36:50;;;;;;;17.70;12.17;;;2.40;99.90;;;;;;5030039;28;20040;-70
2021/12/21 13:39:44;;;;;;;17.27;13.60;;;2.40;99.90;;;;;;5038428;28;20040;-70
2021/12/21 13:42:14;;;;;;;20.90;12.70;;;2.40;99.90;;;;;;5023226;28;20091;-70
2021/12/21 13:44:47;;;;;;;17.53;12.67;;;2.50;99.90;;;;;;5033014;28;20476;-70
2021/12/21 13:47:30;;;;;;;17.37;13.03;;;2.40;99.90;;;;;;5032118;28;20041;-70
2021/12/21 13:50:09;;;;;;;21.67;14.50;;;2.50;99.90;;;;;;5047339;28;20077;-70
2021/12/21 13:52:53;;;;;;;17.47;12.70;;;2.50;99.90;;;;;;5031618;28;20048;-70
2021/12/21 13:55:33;;;;;;;17.97;12.60;;;2.50;99.90;;;;;;5029508;28;20081;-70
2021/12/21 13:58:06;;;;;;;15.27;11.83;;;2.50;99.90;;;;;;5029579;28;20118;-70
2021/12/21 14:00:37;;;;;;;14.03;11.43;;;2.50;99.90;;;;;;5015596;28;20292;-70